Time;durP1;ratioP1;P1;durP2;ratioP2;P2;SDS_P1;SDS_P2;PMS_P1;PMS_P2;Temp;Humidity;BMP_temperature;BMP_pressure;BME280_temperature;BME280_humidity;BME280_pressure;Samples;Min_cycle;Max_cycle;Signal;HPM_P1;HPM_P2
2024/01/14 00:01:19;;;;;;;45.33;42.65;;;;;;;;;;5036822;28;20136;-60
2024/01/14 00:03:44;;;;;;;43.83;41.42;;;;;;;;;;5034656;28;20033;-60
2024/01/14 00:06:09;;;;;;;46.30;43.63;;;;;;;;;;5034269;28;20079;-60
2024/01/14 00:08:35;;;;;;;46.50;43.90;;;;;;;;;;5035616;28;20115;-60
2024/01/14 00:11:00;;;;;;;46.58;43.85;;;;;;;;;;5035955;28;20064;-60
2024/01/14 00:13:25;;;;;;;44.67;42.30;;;;;;;;;;5037236;28;20102;-60
2024/01/14 00:15:51;;;;;;;47.22;44.42;;;;;;;;;;5035898;28;20102;-60
2024/01/14 00:18:16;;;;;;;49.08;46.17;;;;;;;;;;5039439;28;20033;-60
2024/01/14 00:20:41;;;;;;;46.20;43.70;;;;;;;;;;5032478;28;20025;-60
2024/01/14 00:23:07;;;;;;;48.67;45.92;;;;;;;;;;5034149;28;20115;-60
2024/01/14 00:25:32;;;;;;;47.45;44.55;;;;;;;;;;5035675;28;20025;-60
2024/01/14 00:27:57;;;;;;;45.20;42.70;;;;;;;;;;5033511;28;20044;-60
2024/01/14 00:30:23;;;;;;;45.35;42.85;;;;;;;;;;5034997;28;20493;-60
2024/01/14 00:32:48;;;;;;;47.67;45.08;;;;;;;;;;5029711;28;20061;-60
2024/01/14 00:35:13;;;;;;;48.40;45.60;;;;;;;;;;5035066;28;20033;-60
2024/01/14 00:37:41;;;;;;;48.22;45.55;;;;;;;;;;5034303;28;20033;-60
2024/01/14 00:40:07;;;;;;;50.20;46.90;;;;;;;;;;5037998;28;20094;-60
2024/01/14 00:42:32;;;;;;;46.55;43.95;;;;;;;;;;5035297;28;20182;-60
2024/01/14 00:44:58;;;;;;;49.33;46.70;;;;;;;;;;5033251;28;20585;-60
2024/01/14 00:47:23;;;;;;;45.70;43.17;;;;;;;;;;5032224;28;20110;-60
2024/01/14 00:49:49;;;;;;;50.97;48.28;;;;;;;;;;5034498;28;20546;-59
2024/01/14 00:52:14;;;;;;;48.20;45.53;;;;;;;;;;5031326;28;20493;-59
2024/01/14 00:54:39;;;;;;;46.15;43.50;;;;;;;;;;5031283;28;20041;-60
2024/01/14 00:57:05;;;;;;;44.03;41.63;;;;;;;;;;5033855;28;20025;-60
2024/01/14 00:59:30;;;;;;;46.13;43.40;;;;;;;;;;5033643;28;20047;-60
2024/01/14 01:01:56;;;;;;;45.95;43.42;;;;;;;;;;5032708;28;20037;-60
2024/01/14 01:04:21;;;;;;;48.95;46.05;;;;;;;;;;5035459;28;20532;-60
2024/01/14 01:06:46;;;;;;;50.22;47.38;;;;;;;;;;5034831;28;20025;-60
2024/01/14 01:09:12;;;;;;;47.42;44.85;;;;;;;;;;5033148;28;20120;-60
2024/01/14 01:11:37;;;;;;;46.22;43.28;;;;;;;;;;5031797;28;20029;-60
2024/01/14 01:14:03;;;;;;;51.95;48.33;;;;;;;;;;5033644;28;20099;-60
2024/01/14 01:16:29;;;;;;;49.67;46.90;;;;;;;;;;5034140;28;20094;-60
2024/01/14 01:18:54;;;;;;;49.80;46.97;;;;;;;;;;5032927;28;20402;-61
2024/01/14 01:21:20;;;;;;;50.58;47.58;;;;;;;;;;5033117;28;20420;-61
2024/01/14 01:23:45;;;;;;;48.92;46.05;;;;;;;;;;5032497;28;20060;-61
2024/01/14 01:26:10;;;;;;;46.95;44.15;;;;;;;;;;5036159;28;20033;-61
2024/01/14 01:28:36;;;;;;;45.08;42.42;;;;;;;;;;5034500;28;20028;-61
2024/01/14 01:31:01;;;;;;;48.65;45.90;;;;;;;;;;5032838;28;20061;-60
2024/01/14 01:33:26;;;;;;;46.80;44.25;;;;;;;;;;5035191;28;20029;-61
2024/01/14 01:35:52;;;;;;;49.53;46.80;;;;;;;;;;5031830;28;20064;-61
2024/01/14 01:38:17;;;;;;;46.10;43.60;;;;;;;;;;5031644;28;20104;-61
2024/01/14 01:40:42;;;;;;;46.10;43.72;;;;;;;;;;5037481;28;20120;-60
2024/01/14 01:43:08;;;;;;;52.63;49.75;;;;;;;;;;5033941;28;20039;-60
2024/01/14 01:45:33;;;;;;;46.88;44.33;;;;;;;;;;5030887;28;20350;-60
2024/01/14 01:48:00;;;;;;;51.50;48.40;;;;;;;;;;5032770;28;20049;-60
2024/01/14 01:50:27;;;;;;;47.63;45.10;;;;;;;;;;5030530;28;20036;-60
2024/01/14 01:52:53;;;;;;;56.42;53.22;;;;;;;;;;5031484;28;20056;-60
2024/01/14 01:55:18;;;;;;;54.75;51.83;;;;;;;;;;5031580;28;20033;-60
2024/01/14 01:57:44;;;;;;;57.08;54.10;;;;;;;;;;5031036;28;20079;-60
2024/01/14 02:00:12;;;;;;;57.90;54.65;;;;;;;;;;5033611;28;20030;-61
2024/01/14 02:02:41;;;;;;;55.47;52.28;;;;;;;;;;5029396;28;20033;-61
2024/01/14 02:05:07;;;;;;;55.60;51.85;;;;;;;;;;5030934;28;20041;-60
2024/01/14 02:07:33;;;;;;;61.58;57.90;;;;;;;;;;5031986;28;20030;-61
2024/01/14 02:09:59;;;;;;;53.05;49.85;;;;;;;;;;5031286;28;20022;-61
2024/01/14 02:12:24;;;;;;;57.08;53.88;;;;;;;;;;5032950;28;20052;-61
2024/01/14 02:14:50;;;;;;;58.25;55.15;;;;;;;;;;5031214;28;20072;-61
2024/01/14 02:17:15;;;;;;;58.70;55.38;;;;;;;;;;5035117;28;20136;-61
2024/01/14 02:19:40;;;;;;;58.00;54.60;;;;;;;;;;5031691;28;20087;-61
2024/01/14 02:22:10;;;;;;;59.22;55.72;;;;;;;;;;5029847;28;20086;-61
2024/01/14 02:24:37;;;;;;;60.90;57.55;;;;;;;;;;5033626;28;20033;-61
2024/01/14 02:27:02;;;;;;;62.25;58.60;;;;;;;;;;5032036;28;20030;-61
2024/01/14 02:29:28;;;;;;;63.22;59.65;;;;;;;;;;5031070;28;20411;-61
2024/01/14 02:31:54;;;;;;;62.15;58.88;;;;;;;;;;5029689;28;20106;-61
2024/01/14 02:34:20;;;;;;;64.30;60.70;;;;;;;;;;5031265;28;20048;-61
2024/01/14 02:36:45;;;;;;;64.35;60.78;;;;;;;;;;5031783;28;20033;-61
2024/01/14 02:39:11;;;;;;;65.72;62.22;;;;;;;;;;5031801;28;20056;-61
2024/01/14 02:41:36;;;;;;;63.35;59.88;;;;;;;;;;5032888;28;20128;-61
2024/01/14 02:44:01;;;;;;;65.22;61.60;;;;;;;;;;5030478;28;20505;-62
2024/01/14 02:46:30;;;;;;;62.90;59.47;;;;;;;;;;5031096;28;20435;-61
2024/01/14 02:48:57;;;;;;;71.50;67.75;;;;;;;;;;5034810;28;20021;-61
2024/01/14 02:51:23;;;;;;;75.45;71.53;;;;;;;;;;5029293;28;20026;-61
2024/01/14 02:53:48;;;;;;;71.25;67.47;;;;;;;;;;5031604;28;20447;-61
2024/01/14 02:56:13;;;;;;;74.20;70.05;;;;;;;;;;5032680;28;20045;-61
2024/01/14 02:58:39;;;;;;;75.50;71.47;;;;;;;;;;5035298;28;20144;-61
2024/01/14 03:01:04;;;;;;;79.68;75.28;;;;;;;;;;5029182;28;20493;-62
2024/01/14 03:03:30;;;;;;;79.40;74.95;;;;;;;;;;5031726;28;20354;-61
2024/01/14 03:05:55;;;;;;;76.22;71.97;;;;;;;;;;5029993;28;20037;-62
2024/01/14 03:08:21;;;;;;;73.93;70.13;;;;;;;;;;5034186;28;20041;-61
2024/01/14 03:10:46;;;;;;;75.05;71.00;;;;;;;;;;5033551;28;20029;-62
2024/01/14 03:13:14;;;;;;;72.47;68.63;;;;;;;;;;5030806;28;20041;-61
2024/01/14 03:15:39;;;;;;;76.13;71.65;;;;;;;;;;5034043;28;20215;-61
2024/01/14 03:18:05;;;;;;;74.18;69.85;;;;;;;;;;5034728;28;20124;-61
2024/01/14 03:20:30;;;;;;;78.03;73.75;;;;;;;;;;5034356;28;20056;-61
2024/01/14 03:22:55;;;;;;;75.05;71.10;;;;;;;;;;5033925;28;20041;-62
2024/01/14 03:25:21;;;;;;;79.82;73.70;;;;;;;;;;5038771;28;20040;-61
2024/01/14 03:27:46;;;;;;;76.38;72.05;;;;;;;;;;5034585;28;20029;-61
2024/01/14 03:30:12;;;;;;;78.32;74.25;;;;;;;;;;5033753;28;20359;-61
2024/01/14 03:32:38;;;;;;;79.45;75.15;;;;;;;;;;5032656;28;20056;-61
2024/01/14 03:35:04;;;;;;;76.22;72.10;;;;;;;;;;5034019;28;20028;-62
2024/01/14 03:37:29;;;;;;;75.38;71.43;;;;;;;;;;5034500;28;20037;-61
2024/01/14 03:39:57;;;;;;;73.20;69.35;;;;;;;;;;5034670;28;20167;-62
2024/01/14 03:42:22;;;;;;;70.22;66.45;;;;;;;;;;5012269;28;20048;-61
2024/01/14 03:44:49;;;;;;;77.10;72.70;;;;;;;;;;5016768;28;20692;-61
2024/01/14 03:47:14;;;;;;;77.22;72.95;;;;;;;;;;5033600;28;20471;-61
2024/01/14 03:49:40;;;;;;;78.10;73.80;;;;;;;;;;5037289;28;20090;-61
2024/01/14 03:52:05;;;;;;;75.60;71.68;;;;;;;;;;5036262;28;20041;-61
2024/01/14 03:54:31;;;;;;;76.20;71.55;;;;;;;;;;5036847;28;20040;-61
2024/01/14 03:56:56;;;;;;;75.32;71.32;;;;;;;;;;5032338;28;20017;-61
2024/01/14 03:59:21;;;;;;;80.15;75.80;;;;;;;;;;5035370;28;20067;-61
2024/01/14 04:01:46;;;;;;;83.88;79.43;;;;;;;;;;5034847;28;20059;-61
2024/01/14 04:04:12;;;;;;;77.53;73.40;;;;;;;;;;5035353;28;20024;-61
2024/01/14 04:06:37;;;;;;;83.63;78.82;;;;;;;;;;5033227;28;20337;-61
2024/01/14 04:09:03;;;;;;;76.38;71.85;;;;;;;;;;5036246;28;20123;-61
2024/01/14 04:11:28;;;;;;;81.07;75.43;;;;;;;;;;5035763;28;20071;-62
2024/01/14 04:13:54;;;;;;;75.90;72.03;;;;;;;;;;5036033;28;20116;-61
2024/01/14 04:16:19;;;;;;;80.57;76.20;;;;;;;;;;5033620;28;20025;-61
2024/01/14 04:18:45;;;;;;;79.28;74.68;;;;;;;;;;5034279;28;20029;-61
2024/01/14 04:21:23;;;;;;;76.38;72.40;;;;;;;;;;5034240;28;20362;-61
2024/01/14 04:23:50;;;;;;;74.07;70.07;;;;;;;;;;5037698;28;20727;-61
2024/01/14 04:26:20;;;;;;;75.25;71.30;;;;;;;;;;5033252;28;20040;-61
2024/01/14 04:28:45;;;;;;;83.57;79.18;;;;;;;;;;5036010;28;20148;-61
2024/01/14 04:31:11;;;;;;;79.32;74.93;;;;;;;;;;5035009;28;20096;-61
2024/01/14 04:33:36;;;;;;;76.88;72.65;;;;;;;;;;5034838;28;20740;-62
2024/01/14 04:36:01;;;;;;;71.80;68.03;;;;;;;;;;5028146;28;20068;-61
2024/01/14 04:38:27;;;;;;;72.68;68.75;;;;;;;;;;5030871;28;20135;-61
2024/01/14 04:40:52;;;;;;;79.72;75.25;;;;;;;;;;5034926;28;20033;-61
2024/01/14 04:43:17;;;;;;;74.45;69.25;;;;;;;;;;5032454;28;20037;-61
2024/01/14 04:45:43;;;;;;;75.68;71.65;;;;;;;;;;5032937;28;20095;-64
2024/01/14 04:48:08;;;;;;;73.40;69.38;;;;;;;;;;5030710;28;20461;-61
2024/01/14 04:50:34;;;;;;;69.75;65.65;;;;;;;;;;5032692;28;20037;-61
2024/01/14 04:52:59;;;;;;;71.22;67.00;;;;;;;;;;5032671;28;20042;-61
2024/01/14 04:55:24;;;;;;;72.38;67.93;;;;;;;;;;5032710;28;20139;-61
2024/01/14 04:57:50;;;;;;;68.40;64.82;;;;;;;;;;5031486;28;20041;-62
2024/01/14 05:00:15;;;;;;;66.82;63.33;;;;;;;;;;5032802;28;20040;-62
2024/01/14 05:02:40;;;;;;;67.78;63.58;;;;;;;;;;5034421;28;20144;-62
2024/01/14 05:05:06;;;;;;;70.93;66.93;;;;;;;;;;5031004;28;20064;-61
2024/01/14 05:07:32;;;;;;;69.50;65.60;;;;;;;;;;5032176;28;20033;-61
2024/01/14 05:09:57;;;;;;;65.95;62.25;;;;;;;;;;5032028;28;20387;-61
2024/01/14 05:12:23;;;;;;;66.90;63.40;;;;;;;;;;5032303;28;20061;-61
2024/01/14 05:14:48;;;;;;;71.30;67.25;;;;;;;;;;5015074;28;20025;-61
2024/01/14 05:17:14;;;;;;;65.97;62.50;;;;;;;;;;5033449;28;20033;-61
2024/01/14 05:19:40;;;;;;;69.50;65.65;;;;;;;;;;5034869;28;20051;-61
2024/01/14 05:22:05;;;;;;;69.10;65.35;;;;;;;;;;5031012;28;20068;-61
2024/01/14 05:24:31;;;;;;;65.72;62.08;;;;;;;;;;5033166;28;20435;-62
2024/01/14 05:26:56;;;;;;;63.28;59.92;;;;;;;;;;5031912;28;20598;-62
2024/01/14 05:29:21;;;;;;;64.70;60.85;;;;;;;;;;5031768;28;20053;-61
2024/01/14 05:31:47;;;;;;;64.55;60.65;;;;;;;;;;5030223;28;20044;-61
2024/01/14 05:34:12;;;;;;;63.45;59.53;;;;;;;;;;5031579;28;20040;-61
2024/01/14 05:36:37;;;;;;;60.40;56.58;;;;;;;;;;5031602;28;20036;-61
2024/01/14 05:39:04;;;;;;;62.30;58.78;;;;;;;;;;5032959;28;20384;-62
2024/01/14 05:41:30;;;;;;;61.40;57.55;;;;;;;;;;5030461;28;20574;-62
2024/01/14 05:43:56;;;;;;;58.88;55.38;;;;;;;;;;5033572;28;20071;-61
2024/01/14 05:46:21;;;;;;;64.25;59.92;;;;;;;;;;5033086;28;20072;-62
2024/01/14 05:48:46;;;;;;;59.17;55.67;;;;;;;;;;5032257;28;20426;-61
2024/01/14 05:51:12;;;;;;;64.38;60.58;;;;;;;;;;5032893;28;20056;-62
2024/01/14 05:53:37;;;;;;;63.67;60.20;;;;;;;;;;5031432;28;20447;-62
2024/01/14 05:56:03;;;;;;;60.13;56.60;;;;;;;;;;5033632;28;20483;-62
2024/01/14 05:58:29;;;;;;;62.08;58.35;;;;;;;;;;5028655;28;20486;-61
2024/01/14 06:00:54;;;;;;;64.03;58.92;;;;;;;;;;5033476;28;20041;-62
2024/01/14 06:03:20;;;;;;;63.22;59.38;;;;;;;;;;5031613;28;20052;-61
2024/01/14 06:05:45;;;;;;;61.97;58.20;;;;;;;;;;5029035;28;20036;-62
2024/01/14 06:08:11;;;;;;;63.97;60.30;;;;;;;;;;5015709;28;20184;-62
2024/01/14 06:10:36;;;;;;;61.92;57.97;;;;;;;;;;5030611;28;20048;-61
2024/01/14 06:13:01;;;;;;;62.83;59.17;;;;;;;;;;5032644;28;20379;-62
2024/01/14 06:15:26;;;;;;;63.58;59.75;;;;;;;;;;5029634;28;20432;-62
2024/01/14 06:17:52;;;;;;;64.57;60.78;;;;;;;;;;5032442;28;20037;-62
2024/01/14 06:20:17;;;;;;;67.50;63.58;;;;;;;;;;5028274;28;20151;-62
2024/01/14 06:22:42;;;;;;;67.22;63.10;;;;;;;;;;5032401;28;20037;-61
2024/01/14 06:25:08;;;;;;;62.63;58.90;;;;;;;;;;5031855;28;20037;-62
2024/01/14 06:27:33;;;;;;;67.28;62.58;;;;;;;;;;5029642;28;20536;-62
2024/01/14 06:30:00;;;;;;;63.88;60.35;;;;;;;;;;5031228;28;20025;-61
2024/01/14 06:32:25;;;;;;;63.38;58.58;;;;;;;;;;5031553;28;20056;-61
2024/01/14 06:34:50;;;;;;;67.82;64.13;;;;;;;;;;5031578;28;20076;-61
2024/01/14 06:37:16;;;;;;;64.30;60.65;;;;;;;;;;5030261;28;20367;-62
2024/01/14 06:39:41;;;;;;;63.90;59.75;;;;;;;;;;5032269;28;20482;-61
2024/01/14 06:42:06;;;;;;;60.85;57.53;;;;;;;;;;5030979;28;20037;-62
2024/01/14 06:44:32;;;;;;;63.00;59.30;;;;;;;;;;5031340;28;20041;-62
2024/01/14 06:46:57;;;;;;;65.10;61.38;;;;;;;;;;5028707;28;20036;-62
2024/01/14 06:49:22;;;;;;;66.20;62.40;;;;;;;;;;5031243;28;20025;-62
2024/01/14 06:51:48;;;;;;;64.85;60.55;;;;;;;;;;5033208;28;20375;-62
2024/01/14 06:54:14;;;;;;;65.32;61.45;;;;;;;;;;5032876;28;20076;-62
2024/01/14 06:56:46;;;;;;;72.20;67.85;;;;;;;;;;5032924;28;20045;-62
2024/01/14 06:59:20;;;;;;;67.43;63.55;;;;;;;;;;5033857;28;20052;-62
2024/01/14 07:01:46;;;;;;;66.30;62.55;;;;;;;;;;5034890;28;20043;-62
2024/01/14 07:04:12;;;;;;;65.93;62.08;;;;;;;;;;5037109;28;20029;-62
2024/01/14 07:06:37;;;;;;;67.75;63.90;;;;;;;;;;5034283;28;20033;-62
2024/01/14 07:09:04;;;;;;;69.22;64.88;;;;;;;;;;5037342;28;20060;-62
2024/01/14 07:11:29;;;;;;;68.00;63.50;;;;;;;;;;5035359;28;20423;-62
2024/01/14 07:13:55;;;;;;;70.97;66.57;;;;;;;;;;5034225;28;20064;-62
2024/01/14 07:16:20;;;;;;;67.25;63.30;;;;;;;;;;5032898;28;20120;-61
2024/01/14 07:18:45;;;;;;;65.70;62.00;;;;;;;;;;5034475;28;20098;-62
2024/01/14 07:21:11;;;;;;;62.70;58.95;;;;;;;;;;5036652;28;20025;-63
2024/01/14 07:23:37;;;;;;;61.47;58.00;;;;;;;;;;5034435;28;20037;-62
2024/01/14 07:26:05;;;;;;;65.15;61.50;;;;;;;;;;5034978;28;20110;-62
2024/01/14 07:28:30;;;;;;;64.05;60.58;;;;;;;;;;5037435;28;20025;-61
2024/01/14 07:30:56;;;;;;;66.57;62.72;;;;;;;;;;5038092;28;20516;-62
2024/01/14 07:33:21;;;;;;;65.78;62.28;;;;;;;;;;5034699;28;20067;-62
2024/01/14 07:35:47;;;;;;;66.57;62.22;;;;;;;;;;5037052;28;20033;-61
2024/01/14 07:38:12;;;;;;;70.97;66.88;;;;;;;;;;5036989;28;20084;-62
2024/01/14 07:40:37;;;;;;;69.93;65.90;;;;;;;;;;5036064;28;20462;-61
2024/01/14 07:43:03;;;;;;;69.97;65.60;;;;;;;;;;5036831;28;20036;-62
2024/01/14 07:45:28;;;;;;;71.50;67.57;;;;;;;;;;5037257;28;20025;-62
2024/01/14 07:47:53;;;;;;;65.93;62.47;;;;;;;;;;5033559;28;20108;-61
2024/01/14 07:50:19;;;;;;;66.72;63.13;;;;;;;;;;5032516;28;20116;-62
2024/01/14 07:52:44;;;;;;;65.00;61.35;;;;;;;;;;5034047;28;20026;-63
2024/01/14 07:55:10;;;;;;;64.90;61.30;;;;;;;;;;5033969;28;20549;-63
2024/01/14 07:57:35;;;;;;;67.55;63.70;;;;;;;;;;5036592;28;22056;-61
2024/01/14 08:00:01;;;;;;;65.15;61.60;;;;;;;;;;5034799;28;20068;-61
2024/01/14 08:02:26;;;;;;;67.10;63.42;;;;;;;;;;5033650;28;20065;-61
2024/01/14 08:04:51;;;;;;;65.25;61.65;;;;;;;;;;5035552;28;20037;-61
2024/01/14 08:07:17;;;;;;;63.60;60.25;;;;;;;;;;5034929;28;20037;-60
2024/01/14 08:09:42;;;;;;;67.07;63.08;;;;;;;;;;5020586;28;20033;-61
2024/01/14 08:12:07;;;;;;;67.32;63.55;;;;;;;;;;5035985;28;20041;-59
2024/01/14 08:14:33;;;;;;;68.45;64.32;;;;;;;;;;5030432;28;20041;-61
2024/01/14 08:16:58;;;;;;;68.57;64.80;;;;;;;;;;5036295;28;20056;-59
2024/01/14 08:19:24;;;;;;;67.93;64.03;;;;;;;;;;5036164;28;20494;-61
2024/01/14 08:21:49;;;;;;;70.95;67.00;;;;;;;;;;5030784;28;20090;-60
2024/01/14 08:24:14;;;;;;;66.57;62.70;;;;;;;;;;5030459;28;20048;-59
2024/01/14 08:26:46;;;;;;;64.28;60.72;;;;;;;;;;5031962;28;20037;-60
2024/01/14 08:29:14;;;;;;;65.90;62.38;;;;;;;;;;5032419;28;20160;-59
2024/01/14 08:31:41;;;;;;;64.63;60.92;;;;;;;;;;5034033;28;20366;-61
2024/01/14 08:34:09;;;;;;;64.70;61.08;;;;;;;;;;5033071;28;20029;-60
2024/01/14 08:36:36;;;;;;;62.10;58.85;;;;;;;;;;5032354;28;20037;-62
2024/01/14 08:39:01;;;;;;;64.55;61.03;;;;;;;;;;5031489;28;20073;-62
2024/01/14 08:41:27;;;;;;;63.50;60.03;;;;;;;;;;5032969;28;20057;-62
2024/01/14 08:43:53;;;;;;;68.55;64.88;;;;;;;;;;5034856;28;20047;-60
2024/01/14 08:46:18;;;;;;;64.05;60.47;;;;;;;;;;5031477;28;20125;-61
2024/01/14 08:48:44;;;;;;;65.68;62.20;;;;;;;;;;5032292;28;20037;-60
2024/01/14 08:51:12;;;;;;;66.10;61.97;;;;;;;;;;5031962;28;20463;-62
2024/01/14 08:53:37;;;;;;;62.20;58.85;;;;;;;;;;5030616;28;20033;-60
2024/01/14 08:56:03;;;;;;;61.35;58.00;;;;;;;;;;5036254;28;20021;-60
2024/01/14 08:58:28;;;;;;;62.17;58.90;;;;;;;;;;5032167;28;20039;-60
2024/01/14 09:00:54;;;;;;;63.40;60.03;;;;;;;;;;5032989;28;20526;-61
2024/01/14 09:03:20;;;;;;;62.97;58.88;;;;;;;;;;5032564;28;20025;-62
2024/01/14 09:05:45;;;;;;;62.33;59.05;;;;;;;;;;5031355;28;20044;-62
2024/01/14 09:08:12;;;;;;;59.72;56.22;;;;;;;;;;5029960;28;20048;-67
2024/01/14 09:10:37;;;;;;;60.47;56.72;;;;;;;;;;5033733;28;20328;-61
2024/01/14 09:13:03;;;;;;;62.60;58.50;;;;;;;;;;5036409;28;20032;-60
2024/01/14 09:15:28;;;;;;;61.85;58.55;;;;;;;;;;5032801;28;20025;-62
2024/01/14 09:17:53;;;;;;;59.75;56.45;;;;;;;;;;5032233;28;20037;-61
2024/01/14 09:20:19;;;;;;;61.35;57.72;;;;;;;;;;5032575;28;20067;-63
2024/01/14 09:22:45;;;;;;;64.15;59.75;;;;;;;;;;5033013;28;20045;-60
2024/01/14 09:25:11;;;;;;;63.10;59.45;;;;;;;;;;5032550;28;20528;-62
2024/01/14 09:27:37;;;;;;;65.10;61.13;;;;;;;;;;5030482;28;20113;-60
2024/01/14 09:30:02;;;;;;;63.13;59.60;;;;;;;;;;5031898;28;21174;-62
2024/01/14 09:32:28;;;;;;;64.13;60.13;;;;;;;;;;5034931;28;20037;-59
2024/01/14 09:34:54;;;;;;;60.60;57.20;;;;;;;;;;5032228;28;20105;-60
2024/01/14 09:37:19;;;;;;;61.40;58.08;;;;;;;;;;5033850;28;20082;-62
2024/01/14 09:39:45;;;;;;;62.42;58.55;;;;;;;;;;5029588;28;20048;-60
2024/01/14 09:42:33;;;;;;;62.88;58.75;;;;;;;;;;5029349;28;20053;-60
2024/01/14 09:45:02;;;;;;;58.75;55.30;;;;;;;;;;5028677;28;20033;-61
2024/01/14 09:47:31;;;;;;;60.15;56.33;;;;;;;;;;5026344;28;20104;-62
2024/01/14 09:49:59;;;;;;;66.13;61.90;;;;;;;;;;5032690;28;20482;-61
2024/01/14 09:52:24;;;;;;;60.40;56.97;;;;;;;;;;5032249;28;20033;-62
2024/01/14 09:54:50;;;;;;;62.35;59.00;;;;;;;;;;5030305;28;20037;-61
2024/01/14 09:57:18;;;;;;;60.10;56.75;;;;;;;;;;5031543;28;20048;-61
2024/01/14 09:59:43;;;;;;;61.67;57.85;;;;;;;;;;5030236;28;20475;-61
2024/01/14 10:02:11;;;;;;;63.42;59.92;;;;;;;;;;5027835;28;20045;-62
2024/01/14 10:04:39;;;;;;;64.93;61.45;;;;;;;;;;5028515;28;20045;-60
2024/01/14 10:07:04;;;;;;;64.45;61.03;;;;;;;;;;5030483;28;20040;-60
2024/01/14 10:09:30;;;;;;;64.70;61.00;;;;;;;;;;5029643;28;20037;-60
2024/01/14 10:11:55;;;;;;;61.50;57.80;;;;;;;;;;5027543;28;20028;-60
2024/01/14 10:14:27;;;;;;;65.07;61.30;;;;;;;;;;5030683;28;20106;-62
2024/01/14 10:16:57;;;;;;;65.22;61.75;;;;;;;;;;5028669;28;20030;-60
2024/01/14 10:19:23;;;;;;;63.60;60.10;;;;;;;;;;5027890;28;20068;-60
2024/01/14 10:21:48;;;;;;;68.32;64.80;;;;;;;;;;5028555;28;20425;-60
2024/01/14 10:24:14;;;;;;;66.35;62.90;;;;;;;;;;5033180;28;20048;-60
2024/01/14 10:26:40;;;;;;;64.93;61.58;;;;;;;;;;5032111;28;20379;-60
2024/01/14 10:29:06;;;;;;;66.15;62.53;;;;;;;;;;5031257;28;20021;-60
2024/01/14 10:31:31;;;;;;;65.00;61.00;;;;;;;;;;5033365;28;20044;-60
2024/01/14 10:33:59;;;;;;;65.75;61.35;;;;;;;;;;5032575;28;20034;-60
2024/01/14 10:36:28;;;;;;;64.95;61.33;;;;;;;;;;5033839;28;20037;-60
2024/01/14 10:38:56;;;;;;;64.18;60.55;;;;;;;;;;5035374;28;20072;-60
2024/01/14 10:41:21;;;;;;;60.83;57.47;;;;;;;;;;5034843;28;20049;-60
2024/01/14 10:43:47;;;;;;;62.13;58.47;;;;;;;;;;5031917;28;20446;-60
2024/01/14 10:46:14;;;;;;;61.13;57.65;;;;;;;;;;5037776;28;20078;-62
2024/01/14 10:48:41;;;;;;;60.95;57.40;;;;;;;;;;5035375;28;20048;-61
2024/01/14 10:51:09;;;;;;;56.42;53.28;;;;;;;;;;5032514;28;20639;-60
2024/01/14 10:53:52;;;;;;;59.50;55.97;;;;;;;;;;5036631;28;20056;-60
2024/01/14 10:56:27;;;;;;;58.88;55.60;;;;;;;;;;5035760;28;20036;-60
2024/01/14 10:58:53;;;;;;;52.65;49.65;;;;;;;;;;5034298;28;20490;-60
2024/01/14 11:01:20;;;;;;;62.28;58.70;;;;;;;;;;5033558;28;20048;-60
2024/01/14 11:03:46;;;;;;;61.22;57.92;;;;;;;;;;5033605;28;20034;-60
2024/01/14 11:06:12;;;;;;;59.78;56.47;;;;;;;;;;5033409;28;20363;-61
2024/01/14 11:08:39;;;;;;;56.53;53.53;;;;;;;;;;5032355;28;20026;-61
2024/01/14 11:11:05;;;;;;;57.00;53.85;;;;;;;;;;5032278;28;20095;-60
2024/01/14 11:13:39;;;;;;;57.25;53.08;;;;;;;;;;5033245;28;20026;-60
2024/01/14 11:16:09;;;;;;;54.90;51.33;;;;;;;;;;5034372;28;20072;-60
2024/01/14 11:18:42;;;;;;;57.17;53.58;;;;;;;;;;5032206;28;20037;-60
2024/01/14 11:21:35;;;;;;;53.83;50.92;;;;;;;;;;5033392;28;20032;-60
2024/01/14 11:24:01;;;;;;;54.25;51.20;;;;;;;;;;5033062;28;20030;-60
2024/01/14 11:26:26;;;;;;;54.65;51.53;;;;;;;;;;5038954;28;20102;-60
2024/01/14 11:28:54;;;;;;;56.75;53.28;;;;;;;;;;5032553;28;20044;-60
2024/01/14 11:31:20;;;;;;;65.18;61.75;;;;;;;;;;5033756;28;20462;-60
2024/01/14 11:33:49;;;;;;;57.63;54.13;;;;;;;;;;5033779;28;20048;-61
2024/01/14 11:36:53;;;;;;;57.70;54.00;;;;;;;;;;5031326;28;20052;-60
2024/01/14 11:39:18;;;;;;;51.17;48.28;;;;;;;;;;5035828;28;20658;-61
2024/01/14 11:41:44;;;;;;;51.28;48.38;;;;;;;;;;5033729;28;20029;-61
2024/01/14 11:44:11;;;;;;;50.53;47.63;;;;;;;;;;5034515;28;20091;-61
2024/01/14 11:46:47;;;;;;;47.92;45.00;;;;;;;;;;5033748;28;20124;-60
2024/01/14 11:49:22;;;;;;;49.55;46.53;;;;;;;;;;5034408;28;20037;-60
2024/01/14 11:51:58;;;;;;;49.33;46.50;;;;;;;;;;5020106;28;20041;-60
2024/01/14 11:54:23;;;;;;;54.70;50.75;;;;;;;;;;5033420;28;20056;-60
2024/01/14 11:56:49;;;;;;;58.53;55.05;;;;;;;;;;5032042;28;20040;-60
2024/01/14 11:59:14;;;;;;;55.22;52.00;;;;;;;;;;5036799;28;20040;-60
2024/01/14 12:01:39;;;;;;;54.85;51.08;;;;;;;;;;5034707;28;20037;-61
2024/01/14 12:04:08;;;;;;;53.10;50.30;;;;;;;;;;5032360;28;20107;-61
2024/01/14 12:06:44;;;;;;;52.15;48.90;;;;;;;;;;5034783;28;20037;-61
2024/01/14 12:09:12;;;;;;;51.67;48.30;;;;;;;;;;5033138;28;20033;-60
2024/01/14 12:11:38;;;;;;;50.20;47.45;;;;;;;;;;5031787;28;20095;-61
2024/01/14 12:14:04;;;;;;;53.60;50.38;;;;;;;;;;5033266;28;20245;-60
2024/01/14 12:16:33;;;;;;;53.20;50.40;;;;;;;;;;5037010;28;20094;-61
2024/01/14 12:18:59;;;;;;;51.20;48.50;;;;;;;;;;5035916;28;20099;-61
2024/01/14 12:21:26;;;;;;;49.35;46.72;;;;;;;;;;5033512;28;20049;-61
2024/01/14 12:23:52;;;;;;;49.28;46.65;;;;;;;;;;5032940;28;20124;-61
2024/01/14 12:26:19;;;;;;;57.35;53.55;;;;;;;;;;5030283;28;20072;-61
2024/01/14 12:28:45;;;;;;;50.38;47.42;;;;;;;;;;5029889;28;20110;-61
2024/01/14 12:31:18;;;;;;;48.67;45.50;;;;;;;;;;5030859;28;20037;-59
2024/01/14 12:33:46;;;;;;;50.53;47.47;;;;;;;;;;5028875;28;20522;-60
2024/01/14 12:36:13;;;;;;;51.03;48.28;;;;;;;;;;5032347;28;20481;-61
2024/01/14 12:38:40;;;;;;;53.13;50.20;;;;;;;;;;5031763;28;20203;-60
2024/01/14 12:41:05;;;;;;;57.50;54.15;;;;;;;;;;5034226;28;20454;-61
2024/01/14 12:43:31;;;;;;;54.00;50.85;;;;;;;;;;5033546;28;20052;-61
2024/01/14 12:45:56;;;;;;;54.17;50.92;;;;;;;;;;5028124;28;20036;-61
2024/01/14 12:48:23;;;;;;;48.85;46.10;;;;;;;;;;5033875;28;20112;-60
2024/01/14 12:50:57;;;;;;;46.35;43.92;;;;;;;;;;5029118;28;20044;-60
2024/01/14 12:53:24;;;;;;;48.47;45.78;;;;;;;;;;5031720;28;20343;-61
2024/01/14 12:55:50;;;;;;;48.25;44.67;;;;;;;;;;5031151;28;20044;-61
2024/01/14 12:58:16;;;;;;;48.30;45.58;;;;;;;;;;5031562;28;20128;-61
2024/01/14 13:00:42;;;;;;;43.28;40.92;;;;;;;;;;5029962;28;20155;-61
2024/01/14 13:03:08;;;;;;;44.95;41.97;;;;;;;;;;5032282;28;20450;-61
2024/01/14 13:05:34;;;;;;;43.35;40.72;;;;;;;;;;5033314;28;20045;-60
2024/01/14 13:07:59;;;;;;;45.42;42.65;;;;;;;;;;5036631;28;20126;-61
2024/01/14 13:10:24;;;;;;;41.33;39.03;;;;;;;;;;5034734;28;20052;-60
2024/01/14 13:12:50;;;;;;;42.63;40.17;;;;;;;;;;5030361;28;20029;-60
2024/01/14 13:15:15;;;;;;;45.72;43.00;;;;;;;;;;5030327;28;20049;-60
2024/01/14 13:17:41;;;;;;;39.47;37.35;;;;;;;;;;5013051;28;20371;-60
2024/01/14 13:20:10;;;;;;;41.80;39.30;;;;;;;;;;5029091;28;21190;-60
2024/01/14 13:22:36;;;;;;;41.95;39.65;;;;;;;;;;5034090;28;20032;-61
2024/01/14 13:25:02;;;;;;;44.70;42.05;;;;;;;;;;5031134;28;20491;-60
2024/01/14 13:27:27;;;;;;;43.97;40.42;;;;;;;;;;5034531;28;20037;-60
2024/01/14 13:29:53;;;;;;;42.83;40.42;;;;;;;;;;5026704;28;20362;-61
2024/01/14 13:32:18;;;;;;;42.25;39.75;;;;;;;;;;5031360;28;20037;-60
2024/01/14 13:34:44;;;;;;;41.03;38.83;;;;;;;;;;5029468;28;20029;-60
2024/01/14 13:37:10;;;;;;;40.80;38.55;;;;;;;;;;5028811;28;20048;-60
2024/01/14 13:39:35;;;;;;;45.40;42.53;;;;;;;;;;5034339;28;20048;-60
2024/01/14 13:42:00;;;;;;;44.97;42.53;;;;;;;;;;5030965;28;20459;-60
2024/01/14 13:44:26;;;;;;;45.38;42.60;;;;;;;;;;5031009;28;20037;-60
2024/01/14 13:46:51;;;;;;;45.72;43.17;;;;;;;;;;5031230;28;20490;-61
2024/01/14 13:49:17;;;;;;;45.47;42.70;;;;;;;;;;5032721;28;20088;-60
2024/01/14 13:51:43;;;;;;;46.53;44.03;;;;;;;;;;5031170;28;20060;-60
2024/01/14 13:54:11;;;;;;;46.72;42.90;;;;;;;;;;5028495;28;20037;-60
2024/01/14 13:56:37;;;;;;;45.50;42.78;;;;;;;;;;5028612;28;20029;-60
2024/01/14 13:59:03;;;;;;;44.65;42.25;;;;;;;;;;5032274;28;20055;-60
2024/01/14 14:01:28;;;;;;;45.00;42.47;;;;;;;;;;5029959;28;20037;-60
2024/01/14 14:03:54;;;;;;;41.60;39.28;;;;;;;;;;5031264;28;20044;-60
2024/01/14 14:06:19;;;;;;;49.83;46.78;;;;;;;;;;5031456;28;20076;-61
2024/01/14 14:08:44;;;;;;;47.60;45.00;;;;;;;;;;5030451;28;20029;-61
2024/01/14 14:11:11;;;;;;;46.05;43.45;;;;;;;;;;5030950;28;20029;-60